Time;durP1;ratioP1;P1;durP2;ratioP2;P2;SDS_P1;SDS_P2;PMS_P1;PMS_P2;Temp;Humidity;BMP_temperature;BMP_pressure;BME280_temperature;BME280_humidity;BME280_pressure;Samples;Min_cycle;Max_cycle;Signal;HPM_P1;HPM_P2
2023/10/13 00:01:06;;;;;;;;;;;6.60;69.80;;;;;;5138099;23;19908;-86
2023/10/13 00:03:14;;;;;;;;;;;6.70;70.00;;;;;;5163474;22;19915;-85
2023/10/13 00:05:16;;;;;;;;;;;6.60;70.00;;;;;;5165457;23;20344;-85
2023/10/13 00:07:17;;;;;;;;;;;6.60;70.00;;;;;;5139475;23;19915;-86
2023/10/13 00:09:24;;;;;;;;;;;6.70;70.10;;;;;;5138107;23;19907;-85
2023/10/13 00:11:26;;;;;;;;;;;6.60;70.00;;;;;;5164212;23;20019;-85
2023/10/13 00:13:28;;;;;;;;;;;6.60;70.10;;;;;;5163249;22;20363;-85
2023/10/13 00:15:28;;;;;;;;;;;6.60;70.20;;;;;;5164445;23;19911;-85
2023/10/13 00:17:31;;;;;;;;;;;6.40;70.00;;;;;;5157554;23;19908;-85
2023/10/13 00:20:12;;;;;;;;;;;6.60;70.00;;;;;;5161499;23;19935;-85
2023/10/13 00:22:08;;;;;;;;;;;6.60;70.00;;;;;;5158848;23;19984;-85
2023/10/13 00:24:14;;;;;;;;;;;6.60;70.10;;;;;;5165974;22;20367;-85
2023/10/13 00:26:18;;;;;;;;;;;6.50;70.00;;;;;;5164322;23;19910;-86
2023/10/13 00:28:23;;;;;;;;;;;6.60;70.00;;;;;;5138280;23;19915;-85
2023/10/13 00:30:34;;;;;;;;;;;6.60;70.20;;;;;;5137581;23;20257;-85
2023/10/13 00:32:57;;;;;;;;;;;6.60;70.30;;;;;;5161177;22;19920;-85
2023/10/13 00:35:36;;;;;;;;;;;6.60;70.50;;;;;;5163906;23;19915;-87
2023/10/13 00:37:59;;;;;;;;;;;6.70;70.90;;;;;;5162617;23;19974;-86
2023/10/13 00:42:53;;;;;;;;;;;6.70;70.80;;;;;;5162766;22;19903;-85
2023/10/13 00:45:17;;;;;;;;;;;6.60;70.90;;;;;;5141397;23;19908;-85
2023/10/13 00:47:39;;;;;;;;;;;6.70;71.20;;;;;;5164392;23;19917;-85
2023/10/13 00:49:39;;;;;;;;;;;6.70;71.20;;;;;;5134328;23;19904;-84
2023/10/13 00:51:47;;;;;;;;;;;6.80;71.20;;;;;;5160688;23;19907;-85
2023/10/13 00:53:47;;;;;;;;;;;6.80;71.20;;;;;;5134062;23;19998;-85
2023/10/13 00:55:48;;;;;;;;;;;6.80;71.30;;;;;;5161127;23;20076;-85
2023/10/13 00:57:54;;;;;;;;;;;7.00;71.40;;;;;;5161326;23;19908;-85
2023/10/13 00:59:54;;;;;;;;;;;6.90;71.40;;;;;;5161592;23;20255;-85
2023/10/13 01:01:55;;;;;;;;;;;7.00;71.50;;;;;;5134892;23;19908;-85
2023/10/13 01:03:59;;;;;;;;;;;7.00;71.50;;;;;;5161940;22;19911;-85
2023/10/13 01:05:59;;;;;;;;;;;7.00;71.50;;;;;;5135535;23;20579;-85
2023/10/13 01:08:01;;;;;;;;;;;7.10;71.60;;;;;;5164216;23;19919;-85
2023/10/13 01:10:04;;;;;;;;;;;7.10;71.60;;;;;;5164400;23;19903;-85
2023/10/13 01:12:05;;;;;;;;;;;7.10;71.60;;;;;;5164944;23;19908;-85
2023/10/13 01:14:06;;;;;;;;;;;7.20;71.70;;;;;;5161167;22;20366;-86
2023/10/13 01:16:07;;;;;;;;;;;7.30;71.70;;;;;;5165085;23;19911;-85
2023/10/13 01:18:12;;;;;;;;;;;7.40;71.80;;;;;;5137609;23;19907;-85
2023/10/13 01:20:42;;;;;;;;;;;7.40;71.80;;;;;;5138094;23;19957;-85
2023/10/13 01:22:38;;;;;;;;;;;7.40;71.80;;;;;;5160627;23;20089;-85
2023/10/13 01:25:13;;;;;;;;;;;7.40;71.90;;;;;;5162885;23;19904;-85
2023/10/13 01:27:25;;;;;;;;;;;7.50;71.90;;;;;;5162363;23;20332;-86
2023/10/13 01:29:58;;;;;;;;;;;7.60;72.00;;;;;;5140645;23;19929;-85
2023/10/13 01:31:59;;;;;;;;;;;7.50;71.80;;;;;;5112436;23;20221;-85
2023/10/13 01:34:22;;;;;;;;;;;7.60;71.70;;;;;;5163852;22;19918;-85
2023/10/13 01:36:44;;;;;;;;;;;7.60;71.80;;;;;;5162078;23;19914;-86
2023/10/13 01:39:05;;;;;;;;;;;7.70;72.00;;;;;;5160345;23;19911;-85
2023/10/13 01:41:26;;;;;;;;;;;7.80;71.90;;;;;;5138009;23;19940;-86
2023/10/13 01:43:46;;;;;;;;;;;7.80;72.00;;;;;;5160126;22;19915;-86
2023/10/13 01:45:51;;;;;;;;;;;7.80;72.00;;;;;;5161678;23;20008;-86
2023/10/13 01:47:51;;;;;;;;;;;7.90;72.10;;;;;;5158086;23;19978;-85
2023/10/13 01:49:52;;;;;;;;;;;7.90;72.10;;;;;;5160212;23;19903;-85
2023/10/13 01:51:53;;;;;;;;;;;8.10;72.30;;;;;;5160698;23;19912;-87
2023/10/13 01:53:56;;;;;;;;;;;8.10;72.40;;;;;;5134550;23;19918;-85
2023/10/13 01:55:58;;;;;;;;;;;8.10;72.50;;;;;;5160554;23;19931;-85
2023/10/13 01:57:58;;;;;;;;;;;8.10;72.40;;;;;;5156717;23;19915;-85
2023/10/13 02:00:20;;;;;;;;;;;8.20;72.40;;;;;;5134963;23;19935;-85
2023/10/13 02:02:45;;;;;;;;;;;8.20;72.40;;;;;;5161082;22;19983;-85
2023/10/13 02:05:05;;;;;;;;;;;8.30;72.50;;;;;;5162924;23;19959;-85
2023/10/13 02:07:34;;;;;;;;;;;8.30;72.30;;;;;;5163490;23;19903;-85
2023/10/13 02:09:55;;;;;;;;;;;8.40;72.00;;;;;;5164952;23;20086;-85
2023/10/13 02:12:15;;;;;;;;;;;8.40;72.00;;;;;;5165884;23;19961;-85
2023/10/13 02:14:37;;;;;;;;;;;8.60;72.20;;;;;;5165359;23;19904;-84
2023/10/13 02:17:14;;;;;;;;;;;8.50;72.10;;;;;;5165981;23;19915;-86
2023/10/13 02:19:34;;;;;;;;;;;8.60;72.20;;;;;;5165723;22;19923;-87
2023/10/13 02:21:58;;;;;;;;;;;8.70;72.30;;;;;;5171012;22;19990;-85
2023/10/13 02:24:20;;;;;;;;;;;8.60;72.30;;;;;;5146749;23;19908;-85
2023/10/13 02:26:41;;;;;;;;;;;8.80;72.40;;;;;;5144474;23;19950;-85
2023/10/13 02:29:07;;;;;;;;;;;8.80;72.50;;;;;;5164689;23;19954;-85
2023/10/13 02:31:08;;;;;;;;;;;8.80;72.60;;;;;;5166971;23;19990;-85
2023/10/13 02:33:11;;;;;;;;;;;8.90;72.80;;;;;;5165156;22;19978;-86
2023/10/13 02:35:17;;;;;;;;;;;9.00;72.90;;;;;;5141889;23;19908;-85
2023/10/13 02:37:20;;;;;;;;;;;9.00;73.00;;;;;;5141864;23;20376;-86
2023/10/13 02:39:26;;;;;;;;;;;9.10;73.10;;;;;;5166500;23;19930;-84
2023/10/13 02:41:27;;;;;;;;;;;9.10;73.00;;;;;;5140041;23;19915;-85
2023/10/13 02:43:33;;;;;;;;;;;9.20;73.10;;;;;;5141159;23;19927;-85
2023/10/13 02:45:37;;;;;;;;;;;9.20;73.10;;;;;;5164398;23;19908;-85
2023/10/13 02:47:38;;;;;;;;;;;9.20;73.00;;;;;;5137365;23;20419;-85
2023/10/13 02:49:43;;;;;;;;;;;9.30;73.20;;;;;;5161783;23;19916;-85
2023/10/13 02:51:43;;;;;;;;;;;9.40;73.30;;;;;;5134515;23;19912;-85
2023/10/13 02:53:52;;;;;;;;;;;9.40;73.30;;;;;;5164745;22;19914;-85
2023/10/13 02:55:53;;;;;;;;;;;9.30;73.30;;;;;;5137437;23;19908;-85
2023/10/13 02:57:56;;;;;;;;;;;9.50;73.40;;;;;;5138972;23;20013;-85
2023/10/13 03:00:11;;;;;;;;;;;9.50;73.40;;;;;;5164746;23;19903;-86
2023/10/13 03:02:32;;;;;;;;;;;9.50;73.30;;;;;;5163814;23;20400;-85
2023/10/13 03:04:59;;;;;;;;;;;9.60;73.50;;;;;;5165532;23;20391;-86
2023/10/13 03:07:23;;;;;;;;;;;9.60;73.50;;;;;;5139331;23;19908;-85
2023/10/13 03:09:50;;;;;;;;;;;9.70;73.60;;;;;;5167747;23;19926;-85
2023/10/13 03:12:11;;;;;;;;;;;9.60;73.60;;;;;;5166600;23;19969;-85
2023/10/13 03:14:31;;;;;;;;;;;9.70;73.50;;;;;;5167088;22;19953;-85
2023/10/13 03:16:53;;;;;;;;;;;9.70;73.50;;;;;;5168681;23;19903;-85
2023/10/13 03:19:13;;;;;;;;;;;9.80;73.50;;;;;;5146873;23;19946;-85
2023/10/13 03:21:36;;;;;;;;;;;9.90;73.50;;;;;;5164863;23;19958;-85
2023/10/13 03:24:04;;;;;;;;;;;9.90;73.60;;;;;;5167897;22;20387;-85
2023/10/13 03:26:24;;;;;;;;;;;10.00;73.70;;;;;;5166595;23;19931;-85
2023/10/13 03:28:51;;;;;;;;;;;10.00;73.70;;;;;;5145704;23;19908;-85
2023/10/13 03:31:01;;;;;;;;;;;10.00;73.60;;;;;;5167899;23;19989;-85
2023/10/13 03:33:06;;;;;;;;;;;9.90;73.50;;;;;;5164810;22;20599;-85
2023/10/13 03:35:13;;;;;;;;;;;10.10;73.70;;;;;;5166466;23;19932;-86
2023/10/13 03:37:18;;;;;;;;;;;10.10;73.70;;;;;;5140718;23;19982;-85
2023/10/13 03:39:22;;;;;;;;;;;10.10;73.70;;;;;;5167604;23;19911;-85
2023/10/13 03:41:30;;;;;;;;;;;10.10;73.70;;;;;;5141768;23;19920;-85
2023/10/13 03:43:30;;;;;;;;;;;10.20;73.70;;;;;;5139451;23;20015;-85
2023/10/13 03:45:39;;;;;;;;;;;10.20;73.70;;;;;;5168146;23;19912;-84
2023/10/13 03:47:42;;;;;;;;;;;10.40;73.70;;;;;;5140187;23;19908;-86
2023/10/13 03:49:42;;;;;;;;;;;10.30;73.80;;;;;;5164614;23;20355;-85
2023/10/13 03:51:43;;;;;;;;;;;10.30;73.80;;;;;;5137293;23;19920;-85
2023/10/13 03:53:53;;;;;;;;;;;10.40;73.80;;;;;;5109729;23;19996;-85
2023/10/13 03:56:26;;;;;;;;;;;10.40;73.70;;;;;;5138253;23;19908;-84
2023/10/13 03:58:29;;;;;;;;;;;10.40;74.00;;;;;;5135832;23;19942;-85
2023/10/13 04:00:31;;;;;;;;;;;10.40;74.80;;;;;;5161544;23;20316;-86
2023/10/13 04:03:09;;;;;;;;;;;10.50;74.70;;;;;;5161615;22;19915;-85
2023/10/13 04:05:29;;;;;;;;;;;10.60;74.60;;;;;;5161809;23;19914;-85
2023/10/13 04:21:36;;;;;;;;;;;10.70;74.30;;;;;;5164456;23;19983;-85
2023/10/13 04:24:09;;;;;;;;;;;10.80;74.40;;;;;;5164225;22;19907;-86
2023/10/13 04:26:36;;;;;;;;;;;10.90;74.50;;;;;;5163234;23;19911;-85
2023/10/13 04:28:57;;;;;;;;;;;10.80;74.60;;;;;;5165421;23;20378;-85
2023/10/13 04:34:02;;;;;;;;;;;10.90;74.60;;;;;;5180815;22;19940;-85
2023/10/13 04:36:36;;;;;;;;;;;11.00;74.70;;;;;;5189439;22;19912;-85
2023/10/13 04:41:37;;;;;;;;;;;11.10;74.40;;;;;;5189191;22;19927;-86
2023/10/13 04:43:56;;;;;;;;;;;11.00;75.10;;;;;;5152049;23;20275;-85
2023/10/13 04:45:58;;;;;;;;;;;11.00;74.50;;;;;;5162994;23;20232;-84
2023/10/13 04:50:45;;;;;;;;;;;11.00;74.60;;;;;;5160020;23;19916;-85
2023/10/13 04:53:21;;;;;;;;;;;11.20;74.80;;;;;;5163841;22;20335;-85
2023/10/13 04:56:08;;;;;;;;;;;11.10;74.70;;;;;;5139396;23;20316;-87
2023/10/13 04:58:36;;;;;;;;;;;11.10;74.70;;;;;;5161331;23;20017;-85
2023/10/13 05:01:39;;;;;;;;;;;11.10;74.60;;;;;;5163077;23;19907;-86
2023/10/13 05:48:34;;;;;;;;;;;11.60;75.60;;;;;;5163060;23;20344;-87
2023/10/13 06:29:07;;;;;;;;;;;11.80;76.10;;;;;;5163116;23;19986;-86
2023/10/13 06:31:12;;;;;;;;;;;11.80;76.10;;;;;;5162617;23;19911;-85
2023/10/13 06:33:12;;;;;;;;;;;11.90;76.20;;;;;;5160618;22;19987;-85
2023/10/13 06:35:22;;;;;;;;;;;11.80;76.20;;;;;;5160980;23;19938;-85
2023/10/13 06:37:29;;;;;;;;;;;11.80;76.20;;;;;;5161940;23;20330;-87
2023/10/13 06:39:50;;;;;;;;;;;11.90;76.40;;;;;;5160860;23;20403;-85
2023/10/13 06:42:11;;;;;;;;;;;11.90;76.30;;;;;;5157048;23;20391;-86
2023/10/13 06:44:15;;;;;;;;;;;11.90;76.30;;;;;;5135906;23;19904;-85
2023/10/13 06:46:37;;;;;;;;;;;11.90;76.40;;;;;;5147213;22;19911;-86
2023/10/13 06:48:59;;;;;;;;;;;12.00;76.50;;;;;;5187375;22;19907;-86
2023/10/13 06:51:26;;;;;;;;;;;12.00;76.50;;;;;;5163024;23;20358;-85
2023/10/13 06:53:48;;;;;;;;;;;12.10;76.70;;;;;;5160813;22;19907;-86
2023/10/13 06:56:10;;;;;;;;;;;12.20;76.80;;;;;;5162331;23;20384;-85
2023/10/13 06:58:32;;;;;;;;;;;12.20;76.80;;;;;;5163757;23;20363;-85
2023/10/13 07:00:53;;;;;;;;;;;12.10;76.70;;;;;;5161967;23;20362;-84
2023/10/13 07:03:19;;;;;;;;;;;12.30;76.70;;;;;;5162986;22;20338;-85
2023/10/13 07:05:26;;;;;;;;;;;12.20;76.70;;;;;;5136961;23;19915;-85
2023/10/13 07:07:27;;;;;;;;;;;12.20;76.70;;;;;;5136432;23;19908;-85
2023/10/13 07:11:34;;;;;;;;;;;12.30;76.80;;;;;;5162605;23;20386;-87
2023/10/13 07:13:37;;;;;;;;;;;12.40;77.00;;;;;;5136438;23;19904;-84
2023/10/13 07:16:05;;;;;;;;;;;12.40;77.00;;;;;;5158332;23;19908;-85
2023/10/13 07:18:26;;;;;;;;;;;12.50;77.10;;;;;;5161649;23;20402;-84
2023/10/13 07:23:06;;;;;;;;;;;12.50;77.20;;;;;;5163455;22;20477;-84
2023/10/13 07:25:32;;;;;;;;;;;12.60;77.30;;;;;;5161851;23;20624;-84
2023/10/13 07:27:54;;;;;;;;;;;12.60;77.40;;;;;;5140722;23;20320;-85
2023/10/13 07:30:16;;;;;;;;;;;12.60;77.40;;;;;;5163510;23;20251;-84
2023/10/13 07:32:36;;;;;;;;;;;12.70;77.60;;;;;;5162621;23;20605;-84
2023/10/13 07:34:57;;;;;;;;;;;12.70;77.70;;;;;;5162907;23;20426;-84
2023/10/13 07:37:19;;;;;;;;;;;12.80;77.70;;;;;;5163273;23;20537;-85
2023/10/13 07:39:40;;;;;;;;;;;12.80;77.50;;;;;;5163107;23;20248;-85
2023/10/13 07:42:03;;;;;;;;;;;12.90;77.70;;;;;;5161891;23;19911;-86
2023/10/13 07:44:31;;;;;;;;;;;12.90;77.70;;;;;;5162742;22;20561;-84
2023/10/13 07:47:14;;;;;;;;;;;13.00;77.80;;;;;;5163797;23;20279;-84
2023/10/13 07:49:36;;;;;;;;;;;13.10;77.90;;;;;;5162898;23;19962;-84
2023/10/13 07:51:48;;;;;;;;;;;13.10;77.80;;;;;;5134971;23;19919;-84
2023/10/13 07:53:49;;;;;;;;;;;13.10;77.90;;;;;;5163735;22;20225;-86
2023/10/13 07:55:55;;;;;;;;;;;13.20;78.00;;;;;;5164366;23;19954;-84
2023/10/13 07:57:56;;;;;;;;;;;13.20;78.10;;;;;;5163543;23;19988;-86
2023/10/13 08:00:11;;;;;;;;;;;13.30;78.30;;;;;;5137947;23;19907;-85
2023/10/13 08:03:09;;;;;;;;;;;13.30;78.40;;;;;;5160705;23;20209;-85
2023/10/13 08:05:04;;;;;;;;;;;13.40;78.50;;;;;;5163616;23;20322;-86
2023/10/13 08:07:28;;;;;;;;;;;13.40;78.60;;;;;;5160470;23;19931;-84
2023/10/13 08:09:51;;;;;;;;;;;13.50;78.70;;;;;;5162790;23;20329;-85
2023/10/13 08:12:12;;;;;;;;;;;13.50;78.70;;;;;;5140038;23;20378;-85
2023/10/13 08:14:33;;;;;;;;;;;13.60;78.80;;;;;;5162535;22;20323;-84
2023/10/13 08:19:15;;;;;;;;;;;13.70;78.80;;;;;;5164046;23;20332;-85
2023/10/13 08:21:37;;;;;;;;;;;13.80;79.00;;;;;;5164137;23;20287;-85
2023/10/13 08:23:59;;;;;;;;;;;13.90;79.00;;;;;;5164709;22;20332;-86
2023/10/13 08:31:42;;;;;;;;;;;14.00;79.00;;;;;;5140067;23;20247;-84
2023/10/13 08:33:46;;;;;;;;;;;14.10;79.10;;;;;;5163610;22;19922;-86
2023/10/13 08:36:27;;;;;;;;;;;14.10;79.10;;;;;;5138062;23;19908;-84
2023/10/13 08:38:29;;;;;;;;;;;14.10;79.00;;;;;;5163741;23;19994;-85
2023/10/13 08:43:09;;;;;;;;;;;14.20;79.10;;;;;;5163408;22;19907;-85
2023/10/13 08:45:53;;;;;;;;;;;14.20;79.10;;;;;;5139726;23;19912;-85
2023/10/13 08:53:26;;;;;;;;;;;14.30;79.50;;;;;;5162994;22;20362;-86
2023/10/13 08:56:02;;;;;;;;;;;14.40;79.40;;;;;;5164280;23;19907;-85
2023/10/13 08:58:29;;;;;;;;;;;14.50;79.60;;;;;;5163867;23;20263;-85
2023/10/13 09:00:56;;;;;;;;;;;14.60;79.80;;;;;;5163115;23;19912;-85
2023/10/13 09:03:38;;;;;;;;;;;14.70;79.80;;;;;;5140475;23;20330;-86
2023/10/13 09:06:01;;;;;;;;;;;14.70;79.90;;;;;;5141828;23;19911;-86
2023/10/13 09:08:35;;;;;;;;;;;14.70;80.20;;;;;;5185439;22;19915;-86
2023/10/13 09:11:05;;;;;;;;;;;14.70;80.10;;;;;;5173375;22;20263;-86
2023/10/13 09:13:43;;;;;;;;;;;14.80;80.30;;;;;;5164331;22;20451;-85
2023/10/13 09:16:21;;;;;;;;;;;14.90;80.80;;;;;;5162730;23;19914;-85
2023/10/13 09:18:49;;;;;;;;;;;14.90;80.50;;;;;;5162245;23;20251;-85
2023/10/13 09:23:50;;;;;;;;;;;15.00;80.40;;;;;;5161984;22;20254;-85
2023/10/13 09:26:12;;;;;;;;;;;15.00;80.40;;;;;;5140299;23;19908;-85
2023/10/13 09:28:18;;;;;;;;;;;15.10;80.50;;;;;;5163172;23;20446;-84
2023/10/13 09:30:20;;;;;;;;;;;15.20;80.50;;;;;;5163937;23;19935;-85
2023/10/13 09:32:21;;;;;;;;;;;15.20;80.70;;;;;;5135531;23;19912;-85
2023/10/13 09:34:23;;;;;;;;;;;15.20;81.40;;;;;;5160812;22;19946;-85
2023/10/13 09:36:25;;;;;;;;;;;15.20;81.40;;;;;;5162077;23;20674;-85
2023/10/13 09:38:29;;;;;;;;;;;15.30;81.50;;;;;;5138172;23;19904;-84
2023/10/13 09:42:34;;;;;;;;;;;15.40;80.60;;;;;;5136574;23;19908;-85
2023/10/13 09:44:40;;;;;;;;;;;15.30;80.40;;;;;;5136938;23;19970;-84
2023/10/13 09:46:41;;;;;;;;;;;15.40;80.40;;;;;;5161898;23;19912;-85
2023/10/13 09:48:46;;;;;;;;;;;15.40;80.70;;;;;;5163733;23;19907;-85
2023/10/13 09:51:13;;;;;;;;;;;15.40;80.50;;;;;;5163991;23;19959;-85
2023/10/13 09:53:34;;;;;;;;;;;15.40;80.50;;;;;;5165200;22;20450;-85
2023/10/13 09:56:10;;;;;;;;;;;15.40;80.40;;;;;;5172681;22;19940;-85
2023/10/13 09:58:17;;;;;;;;;;;15.40;80.40;;;;;;5161650;23;19919;-85
2023/10/13 10:00:46;;;;;;;;;;;15.60;80.40;;;;;;5162395;23;19916;-85
2023/10/13 10:02:46;;;;;;;;;;;15.40;80.50;;;;;;5154045;23;19942;-84
2023/10/13 10:05:12;;;;;;;;;;;15.50;80.70;;;;;;5164658;23;19910;-85
2023/10/13 10:07:23;;;;;;;;;;;15.50;80.60;;;;;;5138083;23;20324;-84
2023/10/13 10:09:43;;;;;;;;;;;15.50;81.00;;;;;;5164182;23;20251;-84
2023/10/13 10:12:03;;;;;;;;;;;15.60;80.90;;;;;;5165441;23;19911;-86
2023/10/13 10:14:47;;;;;;;;;;;15.50;81.60;;;;;;5142809;23;19904;-85
2023/10/13 10:17:08;;;;;;;;;;;15.60;81.60;;;;;;5162990;23;19907;-84
2023/10/13 10:19:09;;;;;;;;;;;15.60;81.80;;;;;;5163270;23;20232;-85
2023/10/13 10:21:36;;;;;;;;;;;15.60;81.60;;;;;;5162043;23;20263;-84
2023/10/13 10:24:36;;;;;;;;;;;15.60;81.50;;;;;;5165114;22;19903;-85
2023/10/13 10:27:04;;;;;;;;;;;15.60;81.60;;;;;;5159312;23;20246;-84
2023/10/13 10:29:24;;;;;;;;;;;15.70;81.50;;;;;;5162638;23;19908;-84
2023/10/13 10:31:45;;;;;;;;;;;15.80;81.70;;;;;;5158088;23;20635;-84
2023/10/13 10:34:13;;;;;;;;;;;15.70;81.80;;;;;;5161130;22;20401;-83
2023/10/13 10:36:34;;;;;;;;;;;15.70;81.90;;;;;;5156290;23;20283;-85
2023/10/13 10:38:58;;;;;;;;;;;15.70;82.10;;;;;;5161704;23;19973;-83
2023/10/13 10:41:25;;;;;;;;;;;15.70;81.90;;;;;;5162020;23;20338;-84
2023/10/13 10:43:46;;;;;;;;;;;15.70;82.40;;;;;;5162871;22;19931;-85
2023/10/13 10:46:07;;;;;;;;;;;15.80;82.40;;;;;;5160464;23;19907;-85
2023/10/13 10:48:18;;;;;;;;;;;15.80;82.30;;;;;;5137654;23;20291;-83
2023/10/13 10:50:31;;;;;;;;;;;15.80;82.20;;;;;;5136696;23;19998;-84
2023/10/13 10:52:37;;;;;;;;;;;15.80;82.30;;;;;;5135671;23;19908;-85
2023/10/13 10:54:43;;;;;;;;;;;15.80;82.50;;;;;;5162701;22;20252;-84
2023/10/13 10:56:52;;;;;;;;;;;15.90;82.50;;;;;;5136999;23;19908;-84
2023/10/13 10:58:57;;;;;;;;;;;15.90;82.80;;;;;;5137248;23;19927;-84
2023/10/13 11:01:11;;;;;;;;;;;15.90;82.40;;;;;;5161258;23;19942;-84
2023/10/13 11:03:12;;;;;;;;;;;15.90;82.30;;;;;;5161975;22;19904;-86
2023/10/13 11:05:42;;;;;;;;;;;16.00;82.40;;;;;;5162408;23;19971;-83
2023/10/13 11:08:09;;;;;;;;;;;16.00;82.20;;;;;;5163859;23;20429;-83
2023/10/13 11:10:31;;;;;;;;;;;16.00;82.10;;;;;;5141116;23;20159;-84
2023/10/13 11:12:56;;;;;;;;;;;16.10;82.10;;;;;;5162597;22;19973;-83
2023/10/13 11:15:22;;;;;;;;;;;16.00;82.00;;;;;;5156815;23;20264;-85
2023/10/13 11:17:54;;;;;;;;;;;16.10;82.00;;;;;;5155490;23;20320;-84
2023/10/13 11:20:17;;;;;;;;;;;16.00;81.80;;;;;;5163360;23;20251;-84
2023/10/13 11:22:36;;;;;;;;;;;16.10;82.00;;;;;;5135484;23;19911;-84
2023/10/13 11:24:40;;;;;;;;;;;16.00;81.60;;;;;;5162471;22;19931;-84
2023/10/13 11:26:50;;;;;;;;;;;16.10;81.70;;;;;;5136737;23;19908;-84
2023/10/13 11:28:51;;;;;;;;;;;16.10;81.70;;;;;;5156650;23;19912;-84
2023/10/13 11:30:52;;;;;;;;;;;16.10;81.50;;;;;;5133600;23;20346;-85
2023/10/13 11:33:17;;;;;;;;;;;16.10;81.50;;;;;;5161498;22;20055;-85
2023/10/13 11:35:24;;;;;;;;;;;16.00;81.40;;;;;;5135901;23;20691;-85
2023/10/13 11:37:55;;;;;;;;;;;16.00;81.20;;;;;;5157610;22;19895;-86
2023/10/13 11:40:40;;;;;;;;;;;16.00;81.10;;;;;;5176756;22;20323;-85
2023/10/13 11:42:58;;;;;;;;;;;16.00;81.20;;;;;;5164320;22;20247;-85
2023/10/13 11:45:31;;;;;;;;;;;16.00;81.10;;;;;;5162732;23;20007;-84
2023/10/13 11:47:59;;;;;;;;;;;16.00;81.10;;;;;;5140139;23;19916;-85
2023/10/13 11:50:32;;;;;;;;;;;15.90;81.30;;;;;;5141426;23;20331;-85
2023/10/13 11:52:52;;;;;;;;;;;16.00;81.20;;;;;;5140465;22;19908;-83
2023/10/13 11:55:13;;;;;;;;;;;16.00;81.20;;;;;;5162352;23;19963;-84
2023/10/13 11:57:38;;;;;;;;;;;15.90;81.10;;;;;;5164763;23;19900;-83
2023/10/13 11:59:44;;;;;;;;;;;15.90;81.20;;;;;;5165085;23;19934;-86
2023/10/13 12:08:49;;;;;;;;;;;16.00;81.50;;;;;;5162106;23;19978;-84
2023/10/13 12:10:59;;;;;;;;;;;15.90;81.60;;;;;;5162463;23;19918;-82
2023/10/13 12:13:05;;;;;;;;;;;15.90;81.50;;;;;;5137529;23;19900;-85
2023/10/13 12:15:36;;;;;;;;;;;16.00;82.00;;;;;;5164006;23;19904;-83
2023/10/13 12:17:34;;;;;;;;;;;15.90;81.90;;;;;;5150774;23;19903;-83
2023/10/13 12:19:58;;;;;;;;;;;15.90;82.10;;;;;;5162028;23;19904;-85
2023/10/13 12:22:27;;;;;;;;;;;15.90;82.30;;;;;;5134740;23;19944;-80
2023/10/13 12:26:57;;;;;;;;;;;16.00;82.80;;;;;;5162412;23;20231;-82
2023/10/13 12:29:22;;;;;;;;;;;16.10;82.80;;;;;;5169086;23;20354;-85
2023/10/13 12:31:50;;;;;;;;;;;16.00;82.80;;;;;;5159294;23;20339;-84
2023/10/13 12:34:19;;;;;;;;;;;16.10;84.00;;;;;;5158877;22;19994;-84
2023/10/13 12:36:53;;;;;;;;;;;16.10;83.90;;;;;;5156417;23;19978;-85
2023/10/13 12:53:54;;;;;;;;;;;16.50;84.60;;;;;;5133635;23;19904;-83
2023/10/13 12:56:15;;;;;;;;;;;16.50;84.80;;;;;;5133613;23;19924;-84
2023/10/13 12:58:36;;;;;;;;;;;16.60;85.20;;;;;;5113968;23;20080;-86
2023/10/13 13:01:06;;;;;;;;;;;16.70;84.80;;;;;;5134645;23;19982;-83
2023/10/13 13:03:29;;;;;;;;;;;16.70;85.00;;;;;;5135640;23;20041;-83
2023/10/13 13:05:55;;;;;;;;;;;16.90;85.00;;;;;;5132407;23;19917;-85
2023/10/13 13:08:22;;;;;;;;;;;16.90;85.10;;;;;;5114276;23;19998;-84
2023/10/13 13:10:35;;;;;;;;;;;17.00;84.80;;;;;;5134200;23;19904;-84
2023/10/13 13:12:35;;;;;;;;;;;17.00;84.80;;;;;;5134129;23;19931;-84
2023/10/13 13:14:36;;;;;;;;;;;17.20;84.90;;;;;;5133084;23;19908;-82
2023/10/13 13:16:40;;;;;;;;;;;17.10;84.80;;;;;;5135196;23;20332;-84
2023/10/13 13:19:09;;;;;;;;;;;17.10;84.60;;;;;;5161902;23;20336;-83
2023/10/13 13:21:30;;;;;;;;;;;17.20;84.80;;;;;;5164261;23;19974;-83
2023/10/13 13:23:51;;;;;;;;;;;17.30;84.60;;;;;;5141296;23;19959;-82
2023/10/13 13:26:17;;;;;;;;;;;17.30;84.40;;;;;;5141084;23;19916;-83
2023/10/13 13:28:38;;;;;;;;;;;17.30;84.40;;;;;;5159509;23;20455;-81
2023/10/13 13:31:00;;;;;;;;;;;17.40;84.40;;;;;;5133911;23;19915;-83
2023/10/13 13:33:12;;;;;;;;;;;17.50;84.40;;;;;;5128657;23;19920;-84
2023/10/13 13:35:15;;;;;;;;;;;17.50;84.30;;;;;;5131805;23;19939;-85
2023/10/13 13:37:15;;;;;;;;;;;17.60;84.20;;;;;;5134378;23;20280;-84
2023/10/13 13:39:24;;;;;;;;;;;17.60;84.10;;;;;;5134381;23;19936;-83
2023/10/13 13:41:28;;;;;;;;;;;17.70;84.00;;;;;;5159295;23;19908;-85
2023/10/13 13:43:38;;;;;;;;;;;17.60;83.80;;;;;;5160442;22;20037;-81
2023/10/13 13:45:41;;;;;;;;;;;17.70;83.70;;;;;;5159426;23;20387;-85
2023/10/13 13:47:42;;;;;;;;;;;17.70;83.60;;;;;;5135813;23;19908;-83
2023/10/13 13:49:54;;;;;;;;;;;17.80;83.50;;;;;;5162986;23;19915;-84
2023/10/13 13:51:55;;;;;;;;;;;17.80;83.40;;;;;;5161138;23;19960;-84
2023/10/13 13:53:59;;;;;;;;;;;17.90;83.40;;;;;;5136439;23;20348;-83
2023/10/13 13:56:20;;;;;;;;;;;17.90;83.30;;;;;;5135759;23;19907;-82
2023/10/13 13:58:40;;;;;;;;;;;18.00;82.90;;;;;;5162105;23;19907;-85
2023/10/13 14:01:14;;;;;;;;;;;18.00;82.50;;;;;;5161629;23;19993;-85
2023/10/13 14:03:35;;;;;;;;;;;18.10;82.10;;;;;;5138762;23;19908;-83
2023/10/13 14:05:37;;;;;;;;;;;18.00;82.00;;;;;;5160929;23;20042;-84
2023/10/13 14:07:38;;;;;;;;;;;18.10;81.80;;;;;;5162958;23;19910;-86
2023/10/13 14:09:43;;;;;;;;;;;18.10;81.60;;;;;;5135113;23;19995;-83
2023/10/13 14:14:28;;;;;;;;;;;18.20;81.10;;;;;;5146933;23;19896;-85
2023/10/13 14:16:49;;;;;;;;;;;18.20;80.40;;;;;;5184332;22;19904;-85
2023/10/13 14:18:51;;;;;;;;;;;18.30;80.00;;;;;;5161757;23;20632;-88
2023/10/13 14:20:52;;;;;;;;;;;18.30;80.00;;;;;;5137948;23;19915;-83
2023/10/13 14:23:12;;;;;;;;;;;18.30;79.60;;;;;;5143316;23;19907;-83
2023/10/13 14:25:37;;;;;;;;;;;18.40;79.30;;;;;;5143355;23;19974;-85
2023/10/13 14:27:58;;;;;;;;;;;18.40;79.10;;;;;;5164132;23;19914;-83
2023/10/13 14:30:19;;;;;;;;;;;18.40;79.00;;;;;;5162178;23;20010;-88
2023/10/13 14:32:43;;;;;;;;;;;18.40;78.90;;;;;;5162565;23;19927;-87
2023/10/13 14:35:14;;;;;;;;;;;18.30;78.40;;;;;;5157859;23;20022;-85
2023/10/13 14:37:34;;;;;;;;;;;18.30;78.10;;;;;;5159008;23;20347;-86
2023/10/13 14:39:59;;;;;;;;;;;18.30;77.90;;;;;;5159919;23;19911;-84
2023/10/13 14:42:22;;;;;;;;;;;18.30;77.70;;;;;;5162335;23;19908;-83
2023/10/13 14:44:26;;;;;;;;;;;18.20;77.70;;;;;;5163416;22;19926;-84
2023/10/13 14:46:27;;;;;;;;;;;18.20;77.70;;;;;;5135657;23;19904;-84
2023/10/13 14:48:27;;;;;;;;;;;18.10;77.80;;;;;;5164175;23;19903;-85
2023/10/13 14:50:28;;;;;;;;;;;18.20;77.80;;;;;;5163484;23;19915;-85
2023/10/13 14:52:32;;;;;;;;;;;18.00;77.60;;;;;;5162914;23;19927;-85
2023/10/13 14:54:32;;;;;;;;;;;18.00;77.70;;;;;;5161696;22;20266;-86
2023/10/13 14:56:33;;;;;;;;;;;18.00;77.90;;;;;;5137774;23;19915;-84
2023/10/13 14:58:54;;;;;;;;;;;18.00;78.00;;;;;;5162674;23;19907;-85
2023/10/13 15:00:54;;;;;;;;;;;18.00;78.20;;;;;;5136319;23;19927;-86
2023/10/13 15:03:15;;;;;;;;;;;17.90;78.20;;;;;;5143143;23;19908;-85
2023/10/13 15:05:38;;;;;;;;;;;17.90;78.40;;;;;;5144085;23;19907;-84
2023/10/13 15:07:59;;;;;;;;;;;17.90;78.50;;;;;;5164866;23;19994;-87
2023/10/13 15:10:20;;;;;;;;;;;17.90;78.50;;;;;;5174389;22;19920;-84
2023/10/13 15:12:41;;;;;;;;;;;17.90;78.50;;;;;;5186585;22;19904;-86
2023/10/13 15:15:02;;;;;;;;;;;17.80;78.60;;;;;;5188389;22;19918;-84
2023/10/13 15:17:24;;;;;;;;;;;17.80;78.50;;;;;;5182450;22;19958;-86
2023/10/13 15:19:44;;;;;;;;;;;17.80;78.60;;;;;;5166317;23;19957;-85
2023/10/13 15:22:12;;;;;;;;;;;17.80;78.70;;;;;;5165752;23;19957;-86
2023/10/13 15:25:16;;;;;;;;;;;17.80;78.70;;;;;;5162995;22;19907;-84
2023/10/13 15:27:21;;;;;;;;;;;17.90;78.80;;;;;;5062277;23;19929;-84
2023/10/13 15:34:58;;;;;;;;;;;17.80;78.90;;;;;;5037818;23;20335;-86
2023/10/13 15:37:20;;;;;;;;;;;17.80;78.90;;;;;;5035204;23;19905;-86
2023/10/13 15:39:40;;;;;;;;;;;17.80;78.90;;;;;;5037231;23;20108;-87
2023/10/13 15:42:05;;;;;;;;;;;17.70;79.00;;;;;;5036214;23;20345;-86
2023/10/13 15:44:29;;;;;;;;;;;17.80;78.80;;;;;;5036231;23;19916;-87
2023/10/13 15:46:54;;;;;;;;;;;17.80;78.70;;;;;;5034206;23;19916;-88
2023/10/13 15:49:15;;;;;;;;;;;17.80;79.10;;;;;;5036403;23;19991;-86
2023/10/13 15:51:20;;;;;;;;;;;17.70;78.70;;;;;;5034555;23;20003;-88
2023/10/13 15:55:53;;;;;;;;;;;17.70;79.20;;;;;;5162054;22;19923;-86
2023/10/13 15:57:59;;;;;;;;;;;17.70;79.20;;;;;;5162785;23;19914;-89
2023/10/13 16:02:42;;;;;;;;;;;17.70;79.80;;;;;;5159816;23;19914;-86
2023/10/13 16:04:44;;;;;;;;;;;17.60;79.70;;;;;;5161123;22;19912;-86